Terminal Aerodrome Forecast
Issued by NWS

Home | Current Version | Previous Version | Text Only | Print | Product List | Glossary On
Versions: 1 2 3 4 5 6 7 8 9 10 11 12 13 14 15 16 17 18
000
FTUS43 KEAX 280930 AAA
TAFMKC
TAF AMD
KMKC 280930Z 2810/2906 04004KT P6SM OVC015
     FM281500 08008KT P6SM OVC015
     FM282100 07011KT P6SM OVC020=

USA.gov is the U.S. government's official web portal to all federal, state and local government web resources and services.